Time;durP1;ratioP1;P1;durP2;ratioP2;P2;SDS_P1;SDS_P2;PMS_P1;PMS_P2;Temp;Humidity;BMP_temperature;BMP_pressure;BME280_temperature;BME280_humidity;BME280_pressure;Samples;Min_cycle;Max_cycle;Signal;HPM_P1;HPM_P2
2023/04/03 00:01:38;;;;;;;1.30;1.20;;;18.90;55.10;;;;;;4955194;28;20202;-65
2023/04/03 00:04:05;;;;;;;1.48;1.38;;;19.00;55.20;;;;;;4971753;28;20209;-65
2023/04/03 00:06:32;;;;;;;1.23;1.20;;;18.90;55.10;;;;;;4971904;28;20233;-65
2023/04/03 00:08:58;;;;;;;1.45;1.35;;;18.90;55.10;;;;;;4995474;28;20217;-64
2023/04/03 00:11:25;;;;;;;1.40;1.30;;;18.90;55.10;;;;;;4971846;28;20213;-65
2023/04/03 00:13:51;;;;;;;1.48;1.38;;;19.00;55.20;;;;;;4968304;28;20183;-65
2023/04/03 00:16:17;;;;;;;1.48;1.38;;;18.90;55.10;;;;;;4984423;28;20195;-65
2023/04/03 00:18:43;;;;;;;1.38;1.27;;;18.90;55.10;;;;;;4971512;28;20213;-64
2023/04/03 00:21:12;;;;;;;1.90;1.30;;;18.90;55.10;;;;;;4971624;28;20218;-65
2023/04/03 00:23:38;;;;;;;1.30;1.20;;;18.90;55.10;;;;;;4958953;28;20182;-65
2023/04/03 00:26:04;;;;;;;1.20;1.20;;;18.90;55.10;;;;;;4982838;28;20203;-65
2023/04/03 00:28:30;;;;;;;1.48;1.38;;;18.90;55.10;;;;;;4971897;28;20198;-64
2023/04/03 00:30:55;;;;;;;1.42;1.30;;;18.90;55.00;;;;;;4977492;28;20213;-63
2023/04/03 00:33:21;;;;;;;1.58;1.40;;;18.90;55.10;;;;;;4959496;28;20276;-65
2023/04/03 00:35:48;;;;;;;1.60;1.50;;;18.90;55.00;;;;;;4971627;28;20182;-65
2023/04/03 00:38:15;;;;;;;1.75;1.65;;;18.90;54.90;;;;;;4956775;28;20182;-66
2023/04/03 00:40:48;;;;;;;1.40;1.30;;;18.90;55.00;;;;;;4955338;28;20222;-65
2023/04/03 00:43:24;;;;;;;1.30;1.20;;;18.90;54.90;;;;;;4972292;28;20185;-65
2023/04/03 00:45:54;;;;;;;1.13;1.13;;;18.90;54.90;;;;;;4958871;28;20213;-65
2023/04/03 00:48:34;;;;;;;1.30;1.20;;;18.90;54.90;;;;;;4974195;28;20190;-65
2023/04/03 00:51:03;;;;;;;1.10;1.05;;;18.90;54.90;;;;;;4971187;28;20705;-65
2023/04/03 00:53:36;;;;;;;1.40;1.30;;;18.90;54.90;;;;;;4974191;28;20217;-64
2023/04/03 00:56:06;;;;;;;1.58;1.48;;;18.90;54.90;;;;;;4955394;28;20277;-65
2023/04/03 00:58:50;;;;;;;1.40;1.30;;;18.90;54.80;;;;;;4974573;28;20197;-65
2023/04/03 01:01:23;;;;;;;1.60;1.50;;;18.90;54.90;;;;;;4972099;28;20221;-65
2023/04/03 01:03:49;;;;;;;1.60;1.50;;;18.90;54.80;;;;;;4971399;28;20205;-65
2023/04/03 01:06:21;;;;;;;1.40;1.30;;;18.90;54.80;;;;;;4972088;28;20196;-65
2023/04/03 01:08:50;;;;;;;1.40;1.23;;;18.90;54.80;;;;;;4955160;28;20182;-64
2023/04/03 01:11:15;;;;;;;2.28;1.42;;;18.90;54.80;;;;;;4971744;28;20231;-66
2023/04/03 01:13:43;;;;;;;1.60;1.50;;;18.90;54.90;;;;;;4957953;28;20280;-64
2023/04/03 01:16:10;;;;;;;1.23;1.13;;;18.90;54.80;;;;;;4965434;28;20192;-64
2023/04/03 01:18:39;;;;;;;1.50;1.30;;;18.90;54.80;;;;;;4957692;28;20457;-65
2023/04/03 01:21:40;;;;;;;1.33;1.23;;;18.90;54.80;;;;;;4973711;28;20308;-64
2023/04/03 01:24:33;;;;;;;1.30;1.20;;;18.90;54.80;;;;;;4957835;28;20403;-65
2023/04/03 01:27:04;;;;;;;1.48;1.38;;;18.90;54.80;;;;;;4957880;28;20224;-65
2023/04/03 01:29:30;;;;;;;1.40;1.23;;;18.90;54.80;;;;;;4957507;28;20182;-65
2023/04/03 01:32:00;;;;;;;1.40;1.30;;;18.90;54.70;;;;;;4973586;28;20206;-65
2023/04/03 01:34:28;;;;;;;1.30;1.20;;;18.90;54.80;;;;;;4964791;28;20182;-65
2023/04/03 01:36:54;;;;;;;1.38;1.30;;;18.90;54.70;;;;;;4973592;28;20277;-64
2023/04/03 01:39:21;;;;;;;1.40;1.30;;;18.90;54.70;;;;;;4973686;28;20290;-64
2023/04/03 01:41:48;;;;;;;1.45;1.20;;;18.90;54.70;;;;;;4965272;28;20194;-65
2023/04/03 01:44:24;;;;;;;1.25;1.15;;;18.90;54.70;;;;;;4974511;28;20189;-65
2023/04/03 01:46:50;;;;;;;1.50;1.40;;;18.90;54.70;;;;;;4963480;28;20185;-65
2023/04/03 01:49:16;;;;;;;1.63;1.50;;;18.90;54.70;;;;;;4973113;28;20189;-65
2023/04/03 01:51:42;;;;;;;1.65;1.23;;;18.90;54.60;;;;;;4970066;28;20214;-65
2023/04/03 01:54:08;;;;;;;1.40;1.30;;;18.90;54.60;;;;;;4961942;28;20185;-65
2023/04/03 01:56:33;;;;;;;1.35;1.25;;;18.90;54.60;;;;;;4973312;28;20186;-65
2023/04/03 01:58:59;;;;;;;1.33;1.23;;;18.90;54.60;;;;;;4988249;28;20204;-65
2023/04/03 02:01:25;;;;;;;1.70;1.60;;;18.90;54.60;;;;;;4957587;28;20209;-66
2023/04/03 02:03:51;;;;;;;1.33;1.23;;;18.90;54.60;;;;;;4969914;28;20187;-65
2023/04/03 02:06:17;;;;;;;1.40;1.30;;;18.90;54.60;;;;;;4962838;28;20320;-69
2023/04/03 02:08:42;;;;;;;1.40;1.30;;;18.90;54.60;;;;;;4972966;28;20568;-65
2023/04/03 02:11:08;;;;;;;1.65;1.55;;;18.90;54.50;;;;;;4956508;28;20646;-64
2023/04/03 02:13:34;;;;;;;1.35;1.30;;;18.90;55.20;;;;;;4960248;28;20235;-65
2023/04/03 02:16:07;;;;;;;1.65;1.52;;;18.90;54.50;;;;;;4977505;28;20193;-68
2023/04/03 02:18:33;;;;;;;1.60;1.50;;;18.90;54.60;;;;;;4980675;28;20209;-66
2023/04/03 02:20:59;;;;;;;1.35;1.25;;;18.90;54.60;;;;;;4972302;28;20227;-65
2023/04/03 02:23:25;;;;;;;1.38;1.30;;;18.90;54.60;;;;;;4958979;28;20200;-65
2023/04/03 02:25:51;;;;;;;1.30;1.30;;;18.90;54.50;;;;;;4962484;28;20177;-65
2023/04/03 02:28:17;;;;;;;1.30;1.25;;;18.90;54.50;;;;;;4958728;28;20182;-65
2023/04/03 02:30:43;;;;;;;1.65;1.55;;;18.90;54.50;;;;;;4956234;28;20210;-65
2023/04/03 02:33:10;;;;;;;1.50;1.40;;;18.90;54.50;;;;;;4957005;28;20276;-65
2023/04/03 02:35:36;;;;;;;1.40;1.30;;;18.90;54.50;;;;;;4972445;28;20189;-64
2023/04/03 02:38:02;;;;;;;1.17;1.08;;;18.90;54.50;;;;;;4972414;28;20189;-65
2023/04/03 02:40:28;;;;;;;1.50;1.40;;;18.90;54.50;;;;;;4972257;28;20313;-65
2023/04/03 02:42:54;;;;;;;1.70;1.60;;;18.90;54.50;;;;;;4978532;28;20199;-65
2023/04/03 02:45:21;;;;;;;1.70;1.60;;;18.90;54.50;;;;;;4973330;28;20191;-66
2023/04/03 02:47:47;;;;;;;1.70;1.60;;;18.90;54.50;;;;;;4956507;28;20182;-65
2023/04/03 02:50:13;;;;;;;1.52;1.42;;;18.90;54.40;;;;;;4972086;28;20225;-65
2023/04/03 02:52:39;;;;;;;2.22;1.40;;;18.90;54.40;;;;;;4972363;28;20565;-65
2023/04/03 02:55:06;;;;;;;1.30;1.30;;;18.90;54.40;;;;;;4956229;28;20186;-66
2023/04/03 02:57:32;;;;;;;1.50;1.40;;;18.90;54.40;;;;;;4970951;28;20198;-64
2023/04/03 02:59:57;;;;;;;1.45;1.35;;;18.90;54.40;;;;;;4980254;28;20237;-65
2023/04/03 03:02:23;;;;;;;1.50;1.40;;;18.90;55.00;;;;;;4954246;28;20187;-65
2023/04/03 03:04:49;;;;;;;1.50;1.40;;;18.90;54.50;;;;;;4972337;28;20178;-64
2023/04/03 03:07:15;;;;;;;1.58;1.40;;;18.90;54.40;;;;;;4969231;28;20201;-65
2023/04/03 03:09:41;;;;;;;1.30;1.30;;;18.90;54.40;;;;;;4952864;28;20197;-65
2023/04/03 03:12:07;;;;;;;1.50;1.40;;;18.90;54.40;;;;;;4992050;28;20213;-65
2023/04/03 03:14:32;;;;;;;1.25;1.25;;;18.90;54.40;;;;;;4972130;28;20192;-65
2023/04/03 03:16:58;;;;;;;1.52;1.42;;;18.90;54.30;;;;;;4955656;28;20181;-64
2023/04/03 03:19:24;;;;;;;1.60;1.50;;;18.90;54.30;;;;;;4971732;28;20759;-65
2023/04/03 03:21:51;;;;;;;1.52;1.42;;;18.90;54.30;;;;;;4955941;28;20201;-65
2023/04/03 03:24:17;;;;;;;1.35;1.27;;;18.90;54.30;;;;;;4952983;28;20182;-65
2023/04/03 03:26:43;;;;;;;1.50;1.40;;;18.90;54.30;;;;;;4979942;28;20683;-64
2023/04/03 03:29:09;;;;;;;1.50;1.40;;;18.90;54.30;;;;;;4972094;28;20185;-65
2023/04/03 03:31:36;;;;;;;1.58;1.40;;;18.90;54.20;;;;;;4979643;28;20256;-65
2023/04/03 03:34:02;;;;;;;1.38;1.27;;;18.90;54.30;;;;;;4963665;28;20186;-65
2023/04/03 03:36:27;;;;;;;1.38;1.27;;;18.90;54.20;;;;;;4979916;28;20185;-65
2023/04/03 03:38:53;;;;;;;1.30;1.20;;;18.90;54.20;;;;;;4972029;28;20267;-65
2023/04/03 03:41:19;;;;;;;1.63;1.52;;;18.90;54.20;;;;;;4987654;28;20205;-65
2023/04/03 03:43:45;;;;;;;1.52;1.42;;;18.90;54.20;;;;;;4976313;28;20188;-65
2023/04/03 03:46:13;;;;;;;1.38;1.27;;;18.90;54.10;;;;;;4975919;28;20281;-64
2023/04/03 03:48:39;;;;;;;1.60;1.50;;;18.90;54.10;;;;;;4971562;28;20272;-65
2023/04/03 03:51:05;;;;;;;1.40;1.30;;;18.90;54.10;;;;;;4979803;28;20205;-65
2023/04/03 03:53:34;;;;;;;1.40;1.30;;;18.90;54.20;;;;;;4971812;28;20232;-65
2023/04/03 03:56:05;;;;;;;1.52;1.42;;;18.90;54.10;;;;;;4969568;28;20186;-65
2023/04/03 03:58:32;;;;;;;1.35;1.30;;;18.90;54.10;;;;;;4957874;28;20209;-64
2023/04/03 04:01:06;;;;;;;1.50;1.40;;;18.90;54.10;;;;;;4975374;28;20239;-65
2023/04/03 04:03:34;;;;;;;1.20;1.15;;;18.90;54.10;;;;;;4983622;28;20213;-65
2023/04/03 04:06:01;;;;;;;1.65;1.55;;;18.90;54.10;;;;;;4955994;28;20190;-65
2023/04/03 04:08:26;;;;;;;1.13;1.13;;;18.90;54.00;;;;;;4974322;28;20260;-65
2023/04/03 04:10:53;;;;;;;1.25;1.15;;;18.90;54.00;;;;;;4958854;28;20669;-65
2023/04/03 04:13:19;;;;;;;1.50;1.40;;;18.90;54.00;;;;;;4975124;28;20550;-65
2023/04/03 04:15:45;;;;;;;1.13;1.13;;;18.90;54.00;;;;;;4958997;28;20190;-65
2023/04/03 04:18:12;;;;;;;1.40;1.30;;;18.90;54.10;;;;;;4955771;28;20650;-65
2023/04/03 04:20:39;;;;;;;1.33;1.23;;;18.90;54.00;;;;;;4976930;28;20638;-65
2023/04/03 04:23:05;;;;;;;1.60;1.50;;;18.90;54.00;;;;;;4963933;28;20182;-66
2023/04/03 04:25:32;;;;;;;1.20;1.15;;;18.90;54.00;;;;;;4975088;28;20185;-65
2023/04/03 04:27:58;;;;;;;1.50;1.40;;;18.90;54.00;;;;;;4994632;28;20591;-65
2023/04/03 04:30:24;;;;;;;1.60;1.50;;;18.90;54.00;;;;;;4985006;28;20217;-65
2023/04/03 04:32:50;;;;;;;1.60;1.50;;;18.90;53.90;;;;;;4982164;28;20186;-64
2023/04/03 04:35:17;;;;;;;1.42;1.33;;;18.90;53.90;;;;;;4974902;28;20289;-65
2023/04/03 04:37:45;;;;;;;1.45;1.35;;;18.90;53.90;;;;;;4959405;28;20182;-65
2023/04/03 04:40:12;;;;;;;1.42;1.23;;;18.90;53.90;;;;;;4958474;28;20210;-65
2023/04/03 04:42:37;;;;;;;1.25;1.25;;;18.90;53.80;;;;;;4958955;28;20196;-65
2023/04/03 04:45:04;;;;;;;1.35;1.25;;;18.90;53.90;;;;;;4972738;28;20184;-65
2023/04/03 04:47:30;;;;;;;1.27;1.20;;;18.90;53.80;;;;;;4976201;28;20182;-65
2023/04/03 04:49:56;;;;;;;1.60;1.50;;;18.90;53.80;;;;;;4966431;28;20182;-64
2023/04/03 04:52:21;;;;;;;1.58;1.48;;;18.90;53.90;;;;;;4966427;28;20209;-65
2023/04/03 04:54:47;;;;;;;1.23;1.02;;;18.90;53.80;;;;;;4958379;28;20193;-65
2023/04/03 04:57:13;;;;;;;1.33;1.23;;;18.90;53.80;;;;;;4958620;28;20186;-64
2023/04/03 04:59:39;;;;;;;1.10;1.10;;;18.90;53.80;;;;;;4966335;28;20216;-65
2023/04/03 05:02:06;;;;;;;1.40;1.30;;;18.90;53.80;;;;;;4982136;28;20348;-65
2023/04/03 05:04:33;;;;;;;1.27;1.15;;;18.90;53.80;;;;;;4957794;28;20274;-65
2023/04/03 05:07:05;;;;;;;1.33;1.23;;;18.90;53.70;;;;;;4958827;28;20186;-65
2023/04/03 05:09:34;;;;;;;1.67;1.58;;;18.90;53.70;;;;;;4959675;28;20192;-65
2023/04/03 05:12:00;;;;;;;1.05;1.02;;;18.90;53.70;;;;;;4960494;28;20210;-65
2023/04/03 05:14:30;;;;;;;1.20;1.10;;;18.90;53.70;;;;;;4988112;28;20186;-65
2023/04/03 05:17:01;;;;;;;1.20;1.20;;;18.90;53.70;;;;;;4958403;28;20186;-65
2023/04/03 05:19:29;;;;;;;1.20;1.20;;;18.90;53.70;;;;;;4973758;28;20228;-65
2023/04/03 05:21:56;;;;;;;1.17;1.17;;;18.90;53.60;;;;;;4981982;28;20272;-64
2023/04/03 05:24:22;;;;;;;1.20;1.10;;;18.90;53.60;;;;;;4965776;28;20190;-65
2023/04/03 05:26:48;;;;;;;1.42;1.33;;;18.90;53.60;;;;;;4957746;28;20570;-65
2023/04/03 05:29:14;;;;;;;1.50;1.40;;;18.90;53.60;;;;;;4957959;28;20196;-65
2023/04/03 05:31:41;;;;;;;1.20;1.10;;;18.90;53.60;;;;;;4957544;28;20214;-65
2023/04/03 05:34:09;;;;;;;1.33;1.23;;;18.90;53.60;;;;;;4973779;28;20649;-65
2023/04/03 05:36:36;;;;;;;1.20;1.10;;;18.90;53.60;;;;;;4973962;28;20189;-66
2023/04/03 05:39:06;;;;;;;1.27;1.17;;;18.90;53.60;;;;;;4957818;28;20258;-66
2023/04/03 05:41:34;;;;;;;1.27;1.20;;;18.90;53.60;;;;;;4965578;28;20219;-65
2023/04/03 05:44:00;;;;;;;1.02;1.02;;;18.90;53.60;;;;;;4965496;28;20186;-65
2023/04/03 05:46:26;;;;;;;1.30;1.20;;;18.90;53.60;;;;;;4965282;28;20188;-65
2023/04/03 05:48:55;;;;;;;0.93;0.93;;;18.90;53.60;;;;;;4958021;28;20189;-65
2023/04/03 05:51:33;;;;;;;1.50;1.40;;;18.90;53.60;;;;;;4972867;28;20220;-66
2023/04/03 05:54:24;;;;;;;1.55;1.20;;;18.90;53.60;;;;;;4957672;28;20255;-65
2023/04/03 05:56:52;;;;;;;1.30;1.20;;;18.90;54.10;;;;;;4956891;28;20182;-65
2023/04/03 05:59:19;;;;;;;1.15;1.05;;;18.90;53.50;;;;;;4972835;28;20218;-66
2023/04/03 06:01:47;;;;;;;1.38;1.27;;;18.90;53.40;;;;;;4972529;28;20227;-66
2023/04/03 06:04:13;;;;;;;1.90;1.35;;;18.90;53.40;;;;;;4971812;28;20263;-65
2023/04/03 06:06:51;;;;;;;1.30;1.23;;;18.90;53.40;;;;;;4956751;28;20181;-65
2023/04/03 06:09:20;;;;;;;1.10;1.10;;;18.90;53.40;;;;;;4973207;28;20715;-65
2023/04/03 06:11:46;;;;;;;1.42;1.33;;;18.90;53.40;;;;;;4956374;28;20609;-65
2023/04/03 06:14:12;;;;;;;1.65;1.30;;;19.00;53.50;;;;;;4961792;28;20225;-65
2023/04/03 06:16:39;;;;;;;1.48;1.23;;;18.90;53.40;;;;;;4955271;28;20280;-64
2023/04/03 06:19:09;;;;;;;1.50;1.40;;;18.90;53.40;;;;;;4956749;28;20260;-63
2023/04/03 06:21:38;;;;;;;1.55;1.00;;;18.90;53.40;;;;;;4972613;28;20218;-66
2023/04/03 06:24:05;;;;;;;1.30;1.00;;;18.90;53.40;;;;;;4983708;28;20249;-66
2023/04/03 06:26:33;;;;;;;1.00;1.00;;;18.90;53.40;;;;;;4972487;28;20188;-66
2023/04/03 06:28:59;;;;;;;1.20;1.10;;;19.00;53.40;;;;;;4961466;28;20252;-66
2023/04/03 06:31:25;;;;;;;1.10;1.10;;;18.90;53.40;;;;;;4974890;28;20213;-66
2023/04/03 06:33:51;;;;;;;1.23;1.13;;;18.90;53.40;;;;;;4971939;28;20542;-66
2023/04/03 06:36:20;;;;;;;1.00;1.00;;;19.00;53.50;;;;;;4977819;28;20204;-65
2023/04/03 06:38:47;;;;;;;1.30;1.20;;;18.90;53.40;;;;;;4980656;28;20186;-65
2023/04/03 06:41:13;;;;;;;1.00;1.00;;;19.00;53.40;;;;;;4974945;28;20208;-65
2023/04/03 06:43:38;;;;;;;1.13;1.05;;;19.00;53.40;;;;;;4965976;28;20564;-65
2023/04/03 06:46:05;;;;;;;1.65;1.20;;;19.00;53.40;;;;;;4978520;28;20189;-66
2023/04/03 06:48:31;;;;;;;1.20;1.20;;;19.00;53.30;;;;;;4956091;28;20188;-65
2023/04/03 06:50:57;;;;;;;1.23;0.98;;;19.00;53.30;;;;;;4972144;28;20292;-65
2023/04/03 06:53:23;;;;;;;1.20;1.10;;;19.00;53.30;;;;;;4972349;28;20674;-65
2023/04/03 06:55:49;;;;;;;1.27;1.17;;;19.00;53.30;;;;;;4973042;28;20207;-66
2023/04/03 06:58:17;;;;;;;1.15;1.05;;;19.00;53.30;;;;;;4980077;28;20593;-65
2023/04/03 07:00:42;;;;;;;1.40;1.30;;;19.00;53.30;;;;;;4957054;28;20225;-65
2023/04/03 07:03:08;;;;;;;1.33;1.23;;;19.00;53.40;;;;;;4955991;28;20193;-65
2023/04/03 07:05:34;;;;;;;1.35;1.25;;;19.00;53.30;;;;;;4971933;28;20199;-65
2023/04/03 07:08:00;;;;;;;1.00;0.88;;;19.00;53.30;;;;;;4956168;28;20185;-65
2023/04/03 07:10:26;;;;;;;1.27;1.15;;;19.00;53.30;;;;;;4971784;28;20222;-65
2023/04/03 07:12:52;;;;;;;1.30;1.20;;;19.00;53.30;;;;;;4948338;28;20194;-65
2023/04/03 07:15:18;;;;;;;1.42;1.10;;;19.00;53.30;;;;;;4972008;28;20186;-64
2023/04/03 07:17:44;;;;;;;1.33;1.20;;;19.00;53.30;;;;;;4955875;28;20197;-64
2023/04/03 07:20:10;;;;;;;1.15;1.05;;;19.00;53.30;;;;;;4963587;28;20213;-65
2023/04/03 07:22:36;;;;;;;1.65;1.23;;;19.00;53.30;;;;;;4956187;28;20189;-66
2023/04/03 07:25:04;;;;;;;1.20;1.13;;;19.00;53.30;;;;;;4972095;28;20186;-65
2023/04/03 07:27:30;;;;;;;1.30;1.13;;;19.00;53.20;;;;;;4955870;28;20280;-66
2023/04/03 07:29:56;;;;;;;0.88;0.88;;;19.00;53.20;;;;;;4976969;28;20275;-66
2023/04/03 07:32:21;;;;;;;1.00;1.00;;;19.10;53.30;;;;;;4959462;28;20293;-66
2023/04/03 07:34:47;;;;;;;1.20;1.10;;;19.00;53.20;;;;;;4976398;28;20739;-66
2023/04/03 07:37:13;;;;;;;0.85;0.85;;;19.10;53.20;;;;;;4959997;28;20196;-65
2023/04/03 07:39:39;;;;;;;1.17;1.10;;;19.10;53.20;;;;;;4967431;28;20220;-66
2023/04/03 07:42:05;;;;;;;1.30;1.20;;;19.10;53.20;;;;;;4959439;28;20223;-66
2023/04/03 07:44:32;;;;;;;1.20;1.10;;;19.00;53.20;;;;;;4975363;28;20268;-67
2023/04/03 07:46:57;;;;;;;1.30;1.20;;;19.00;53.20;;;;;;4959702;28;20190;-66
2023/04/03 07:49:24;;;;;;;1.30;1.10;;;19.00;53.20;;;;;;4983235;28;20189;-66
2023/04/03 07:51:51;;;;;;;1.08;0.98;;;19.10;53.10;;;;;;4983815;28;20268;-65
2023/04/03 07:54:17;;;;;;;1.40;1.30;;;19.00;53.10;;;;;;4956179;28;20229;-65
2023/04/03 07:56:43;;;;;;;1.30;1.20;;;19.00;53.00;;;;;;4975128;28;20225;-64
2023/04/03 07:59:10;;;;;;;1.15;1.10;;;19.10;53.20;;;;;;4959547;28;20338;-65
2023/04/03 08:01:36;;;;;;;1.33;1.23;;;19.10;53.10;;;;;;4958802;28;20215;-66
2023/04/03 08:04:02;;;;;;;0.98;0.90;;;19.10;53.10;;;;;;4979598;28;20184;-65
2023/04/03 08:06:29;;;;;;;1.42;1.10;;;19.10;53.10;;;;;;4959219;28;20194;-65
2023/04/03 08:08:55;;;;;;;2.05;1.20;;;19.10;53.10;;;;;;4970934;28;20181;-65
2023/04/03 08:11:23;;;;;;;1.10;1.00;;;19.10;53.10;;;;;;4967279;28;20216;-67
2023/04/03 08:13:49;;;;;;;1.40;1.30;;;19.10;53.10;;;;;;4977649;28;20190;-65
2023/04/03 08:16:20;;;;;;;1.20;1.20;;;19.10;53.10;;;;;;4964664;28;20189;-66
2023/04/03 08:18:45;;;;;;;2.00;1.35;;;19.10;53.10;;;;;;4974797;28;20683;-66
2023/04/03 08:21:12;;;;;;;1.27;1.17;;;19.10;53.10;;;;;;4975046;28;20225;-66
2023/04/03 08:23:40;;;;;;;1.42;1.08;;;19.10;53.00;;;;;;4975625;28;20197;-66
2023/04/03 08:26:13;;;;;;;1.30;1.20;;;19.10;52.90;;;;;;4958797;28;20205;-66
2023/04/03 08:28:40;;;;;;;1.40;1.17;;;19.10;52.90;;;;;;4959165;28;20201;-65
2023/04/03 08:31:11;;;;;;;2.47;1.20;;;19.10;52.90;;;;;;4978306;28;20209;-65
2023/04/03 08:33:39;;;;;;;1.48;1.38;;;19.10;52.90;;;;;;4972354;28;20403;-65
2023/04/03 08:36:08;;;;;;;2.15;1.10;;;19.10;52.80;;;;;;4981799;28;20192;-65
2023/04/03 08:38:36;;;;;;;1.13;1.02;;;19.10;52.80;;;;;;4958804;28;20193;-66
2023/04/03 08:41:30;;;;;;;1.42;1.30;;;19.10;52.80;;;;;;4978844;28;20231;-66
2023/04/03 08:44:22;;;;;;;1.40;1.30;;;19.10;52.80;;;;;;4975786;28;20181;-65
2023/04/03 08:47:15;;;;;;;1.23;1.13;;;19.20;52.90;;;;;;4958182;28;20204;-65
2023/04/03 08:49:48;;;;;;;1.35;1.17;;;19.10;52.80;;;;;;4975693;28;20197;-66
2023/04/03 08:52:23;;;;;;;1.40;1.30;;;19.10;52.80;;;;;;4974392;28;20572;-67
2023/04/03 08:55:01;;;;;;;1.30;1.20;;;19.20;53.00;;;;;;4982460;28;20197;-66
2023/04/03 08:57:39;;;;;;;1.83;1.20;;;19.20;52.80;;;;;;4971309;28;20194;-66
2023/04/03 09:00:13;;;;;;;1.27;1.08;;;19.20;52.90;;;;;;4967161;28;20565;-66
2023/04/03 09:02:52;;;;;;;1.50;1.35;;;19.20;52.80;;;;;;4966093;28;20188;-66
2023/04/03 09:05:38;;;;;;;1.17;1.08;;;19.20;52.80;;;;;;4990224;28;20348;-66
2023/04/03 09:08:17;;;;;;;1.50;1.20;;;19.20;52.80;;;;;;4973628;28;20200;-64
2023/04/03 09:10:43;;;;;;;1.55;1.23;;;19.20;52.90;;;;;;4975082;28;20210;-66
2023/04/03 09:13:59;;;;;;;1.25;1.10;;;19.20;52.80;;;;;;4975375;28;20192;-64
2023/04/03 09:16:54;;;;;;;1.20;1.10;;;19.20;52.80;;;;;;4968851;28;20202;-66
2023/04/03 09:19:32;;;;;;;1.42;1.33;;;19.20;52.80;;;;;;4974520;28;20229;-65
2023/04/03 09:22:11;;;;;;;1.40;1.30;;;19.20;52.70;;;;;;4973884;28;20316;-65
2023/04/03 09:24:38;;;;;;;1.20;1.20;;;19.20;52.80;;;;;;4965782;28;20189;-66
2023/04/03 09:27:10;;;;;;;1.30;1.20;;;19.20;52.80;;;;;;4974270;28;20196;-66
2023/04/03 09:29:45;;;;;;;1.10;1.10;;;19.20;52.90;;;;;;4958242;28;20197;-66
2023/04/03 09:32:34;;;;;;;1.20;1.10;;;19.20;52.80;;;;;;4970457;28;20248;-66
2023/04/03 09:35:14;;;;;;;1.02;0.93;;;19.20;52.80;;;;;;4965262;28;20212;-65
2023/04/03 09:37:47;;;;;;;3.42;1.42;;;19.20;52.80;;;;;;4957756;28;20644;-66
2023/04/03 09:40:31;;;;;;;1.48;1.38;;;19.20;52.80;;;;;;4954150;29;20210;-65
2023/04/03 09:43:16;;;;;;;1.23;1.13;;;19.20;52.80;;;;;;4957637;28;20186;-66
2023/04/03 09:45:43;;;;;;;0.98;0.98;;;19.20;52.70;;;;;;4971448;28;20194;-64
2023/04/03 09:48:19;;;;;;;1.60;1.10;;;19.20;52.70;;;;;;4973379;28;20177;-65
2023/04/03 09:50:55;;;;;;;1.27;1.17;;;19.20;52.70;;;;;;4971004;28;20684;-66
2023/04/03 09:53:38;;;;;;;1.00;1.00;;;19.20;52.60;;;;;;4980297;28;20193;-66
2023/04/03 09:56:21;;;;;;;1.00;1.00;;;19.20;52.70;;;;;;4958878;28;20239;-66
2023/04/03 09:58:59;;;;;;;1.90;1.27;;;19.20;52.70;;;;;;4989056;28;20272;-66
2023/04/03 10:01:58;;;;;;;1.13;1.13;;;19.20;52.70;;;;;;4974544;28;20213;-66
2023/04/03 10:04:24;;;;;;;1.95;1.60;;;19.20;52.70;;;;;;4973031;28;20224;-65
2023/04/03 10:06:55;;;;;;;1.40;1.30;;;19.20;52.60;;;;;;4964724;28;20254;-66
2023/04/03 10:09:30;;;;;;;1.45;1.35;;;19.20;52.60;;;;;;4973072;28;20194;-65
2023/04/03 10:12:08;;;;;;;0.90;0.90;;;19.20;52.60;;;;;;4972764;28;20205;-65
2023/04/03 10:14:57;;;;;;;1.50;1.40;;;19.20;52.60;;;;;;4969240;28;20190;-65
2023/04/03 10:17:56;;;;;;;1.42;1.10;;;19.20;52.60;;;;;;4968746;28;20211;-67
2023/04/03 10:20:49;;;;;;;1.50;1.30;;;19.20;52.60;;;;;;4953387;28;20214;-69
2023/04/03 10:23:31;;;;;;;1.88;1.15;;;19.20;52.60;;;;;;4964977;28;20244;-67
2023/04/03 10:26:17;;;;;;;2.05;1.42;;;19.20;52.70;;;;;;4971825;28;20190;-67
2023/04/03 10:29:11;;;;;;;1.33;1.23;;;19.20;52.60;;;;;;4975163;28;20185;-66
2023/04/03 10:31:52;;;;;;;1.55;1.20;;;19.20;52.50;;;;;;4968595;28;20229;-66
2023/04/03 10:34:27;;;;;;;1.40;1.30;;;19.20;52.60;;;;;;4967854;28;20185;-67
2023/04/03 10:37:25;;;;;;;1.30;1.20;;;19.20;52.60;;;;;;4972322;28;20193;-67
2023/04/03 10:40:24;;;;;;;1.30;1.20;;;19.20;52.50;;;;;;4972313;28;20202;-65
2023/04/03 10:43:28;;;;;;;1.02;1.02;;;19.20;52.50;;;;;;4970769;28;20189;-67
2023/04/03 10:46:11;;;;;;;1.52;1.33;;;19.20;52.60;;;;;;4979240;28;20190;-67
2023/04/03 10:49:21;;;;;;;1.13;1.00;;;19.20;52.50;;;;;;4984476;28;20192;-67
2023/04/03 10:52:00;;;;;;;1.17;1.10;;;19.20;52.60;;;;;;4971749;28;20303;-66
2023/04/03 10:54:38;;;;;;;1.58;1.30;;;19.20;52.50;;;;;;4972350;28;20273;-65
2023/04/03 10:57:08;;;;;;;1.48;1.38;;;19.20;52.50;;;;;;4972100;28;20204;-66
2023/04/03 11:00:01;;;;;;;1.60;1.50;;;19.20;52.50;;;;;;4972086;28;20757;-67
2023/04/03 11:02:41;;;;;;;1.40;1.30;;;19.20;52.50;;;;;;4967248;28;20202;-67
2023/04/03 11:05:34;;;;;;;1.40;1.30;;;19.20;52.50;;;;;;4964424;28;20185;-67
2023/04/03 11:08:27;;;;;;;1.95;1.20;;;19.20;52.40;;;;;;4972209;28;20213;-66
2023/04/03 11:11:00;;;;;;;1.40;1.30;;;19.20;52.40;;;;;;4954764;28;20217;-66
2023/04/03 11:14:00;;;;;;;1.45;1.20;;;19.20;52.40;;;;;;4973211;28;20244;-67
2023/04/03 11:16:35;;;;;;;1.27;1.20;;;19.20;52.50;;;;;;4971934;28;20280;-67
2023/04/03 11:19:24;;;;;;;2.38;1.40;;;19.20;52.30;;;;;;4955609;28;20207;-67
2023/04/03 11:22:22;;;;;;;0.90;0.90;;;19.20;52.30;;;;;;4955506;28;20217;-67
2023/04/03 11:25:21;;;;;;;1.30;1.20;;;19.20;52.40;;;;;;4948176;28;20296;-66
2023/04/03 11:27:58;;;;;;;2.28;1.38;;;19.20;52.70;;;;;;4974217;28;20652;-67
2023/04/03 11:31:01;;;;;;;1.50;1.40;;;19.20;52.50;;;;;;4968481;28;20214;-68
2023/04/03 11:34:23;;;;;;;1.30;1.20;;;19.20;52.60;;;;;;4961955;28;20189;-66
2023/04/03 11:36:55;;;;;;;2.30;1.33;;;19.20;52.50;;;;;;4953175;28;20756;-66
2023/04/03 11:39:38;;;;;;;1.80;1.10;;;19.20;52.50;;;;;;4960759;28;20217;-67
2023/04/03 11:42:40;;;;;;;1.45;1.15;;;19.20;52.50;;;;;;4955207;28;20569;-67
2023/04/03 11:45:21;;;;;;;1.73;1.50;;;19.20;52.40;;;;;;4958397;28;20217;-66
2023/04/03 11:48:22;;;;;;;2.35;1.10;;;19.30;52.60;;;;;;4971824;28;20221;-66
2023/04/03 11:50:48;;;;;;;1.40;1.30;;;19.20;52.40;;;;;;4977094;28;20221;-66
2023/04/03 11:53:14;;;;;;;2.45;1.40;;;19.20;52.30;;;;;;4960232;28;20185;-66
2023/04/03 11:55:49;;;;;;;1.08;1.08;;;19.20;52.30;;;;;;4974061;28;20201;-67
2023/04/03 11:58:27;;;;;;;2.88;1.50;;;19.20;52.30;;;;;;4961366;28;20221;-67
2023/04/03 12:01:09;;;;;;;1.77;1.30;;;19.20;52.30;;;;;;4951279;28;20218;-67
2023/04/03 12:03:42;;;;;;;1.98;1.60;;;19.30;52.40;;;;;;4960321;28;20191;-66
2023/04/03 12:06:09;;;;;;;3.58;1.60;;;19.30;52.30;;;;;;4979426;28;20533;-66
2023/04/03 12:08:50;;;;;;;4.55;1.88;;;19.50;53.20;;;;;;4986606;28;20224;-67
2023/04/03 12:11:32;;;;;;;3.25;1.80;;;19.40;53.00;;;;;;4961405;28;20210;-67
2023/04/03 12:13:57;;;;;;;3.50;1.50;;;19.30;53.10;;;;;;4969837;28;20190;-67
2023/04/03 12:16:30;;;;;;;2.10;1.20;;;19.30;53.10;;;;;;4954933;28;20186;-67
2023/04/03 12:19:14;;;;;;;2.72;1.20;;;19.30;53.10;;;;;;4984317;28;20539;-68
2023/04/03 12:21:46;;;;;;;3.72;1.50;;;19.30;53.00;;;;;;4971815;28;20221;-67
2023/04/03 12:24:15;;;;;;;1.17;0.98;;;19.30;53.00;;;;;;4948152;29;20205;-65
2023/04/03 12:26:59;;;;;;;1.90;1.50;;;19.30;53.00;;;;;;4971585;28;20240;-66
2023/04/03 12:29:34;;;;;;;2.00;1.55;;;19.30;52.90;;;;;;4971590;28;20190;-67
2023/04/03 12:32:40;;;;;;;2.72;1.60;;;19.30;52.90;;;;;;4974284;28;20240;-67
2023/04/03 12:35:20;;;;;;;2.58;1.40;;;19.30;52.80;;;;;;4966700;28;20345;-66
2023/04/03 12:38:35;;;;;;;4.05;1.45;;;19.30;52.80;;;;;;4974890;28;20209;-67
2023/04/03 12:41:38;;;;;;;1.83;1.20;;;19.30;52.80;;;;;;4959246;28;20236;-67
2023/04/03 12:44:36;;;;;;;1.60;1.50;;;19.30;52.70;;;;;;4982720;28;20643;-66
2023/04/03 12:47:21;;;;;;;2.00;1.40;;;19.30;52.80;;;;;;4977436;28;20200;-65
2023/04/03 12:49:51;;;;;;;4.45;1.35;;;19.30;52.80;;;;;;4985923;28;20184;-67
2023/04/03 12:52:32;;;;;;;1.75;1.40;;;19.30;52.70;;;;;;4989531;28;20209;-67
2023/04/03 12:55:03;;;;;;;2.63;1.40;;;19.30;52.70;;;;;;4958246;28;20232;-67
2023/04/03 12:57:32;;;;;;;1.20;1.10;;;19.30;52.70;;;;;;4974696;28;20188;-67
2023/04/03 12:59:59;;;;;;;2.80;1.30;;;19.30;52.70;;;;;;4975304;28;20232;-67
2023/04/03 13:02:31;;;;;;;2.17;1.50;;;19.30;52.70;;;;;;4974318;28;20193;-67
2023/04/03 13:05:05;;;;;;;1.63;1.50;;;19.30;52.70;;;;;;4974260;28;20192;-67
2023/04/03 13:07:40;;;;;;;1.88;1.27;;;19.30;52.60;;;;;;4958154;28;20181;-67
2023/04/03 13:10:08;;;;;;;1.73;1.48;;;19.30;52.70;;;;;;4975095;28;20639;-67
2023/04/03 13:12:57;;;;;;;3.08;1.55;;;19.30;52.70;;;;;;4974539;28;20281;-66
2023/04/03 13:15:40;;;;;;;4.03;1.10;;;19.30;52.60;;;;;;4974289;28;20256;-67